createdAt,value
2019-01-30T00:00:53.501Z,9.03
2019-01-30T00:03:20.444Z,7.22
2019-01-30T00:05:47.432Z,8.98
2019-01-30T00:08:14.509Z,8.95
2019-01-30T00:10:41.652Z,8.75
2019-01-30T00:13:08.702Z,8.43
2019-01-30T00:15:35.712Z,7.65
2019-01-30T00:18:03.541Z,11.85
2019-01-30T00:20:30.513Z,8.10
2019-01-30T00:22:57.444Z,7.70
2019-01-30T00:25:24.418Z,7.65
2019-01-30T00:27:51.453Z,8.75
2019-01-30T00:30:18.660Z,7.05
2019-01-30T00:32:45.785Z,7.65
2019-01-30T00:35:12.781Z,7.47
2019-01-30T00:37:39.757Z,7.62
2019-01-30T00:40:07.778Z,8.75
2019-01-30T00:42:34.741Z,12.28
2019-01-30T00:45:01.781Z,8.00
2019-01-30T00:47:28.674Z,7.60
2019-01-30T00:49:56.434Z,9.10
2019-01-30T00:52:23.483Z,14.58
2019-01-30T00:54:50.484Z,8.68
2019-01-30T00:57:17.437Z,7.53
2019-01-30T00:59:44.512Z,9.40
2019-01-30T01:02:11.625Z,7.15
2019-01-30T01:04:38.662Z,8.05
2019-01-30T01:07:05.796Z,6.90
2019-01-30T01:09:32.768Z,8.45
2019-01-30T01:11:59.745Z,8.48
2019-01-30T01:14:26.752Z,7.22
2019-01-30T01:16:53.720Z,7.70
2019-01-30T01:19:20.905Z,8.08
2019-01-30T01:21:47.877Z,7.35
2019-01-30T01:24:14.832Z,10.10
2019-01-30T01:26:41.835Z,7.00
2019-01-30T01:29:08.939Z,8.25
2019-01-30T01:31:35.934Z,8.45
2019-01-30T01:34:03.264Z,7.72
2019-01-30T01:36:30.253Z,10.93
2019-01-30T01:38:57.129Z,9.18
2019-01-30T01:41:24.143Z,8.48
2019-01-30T01:43:51.241Z,7.62
2019-01-30T01:46:18.212Z,13.10
2019-01-30T01:48:45.123Z,7.47
2019-01-30T01:51:12.210Z,10.00
2019-01-30T01:53:39.125Z,9.98
2019-01-30T01:56:06.073Z,9.70
2019-01-30T01:58:33.064Z,9.53
2019-01-30T02:01:00.071Z,9.18
2019-01-30T02:03:27.178Z,8.55
2019-01-30T02:05:54.104Z,8.40
2019-01-30T02:08:21.106Z,8.60
2019-01-30T02:10:48.189Z,7.65
2019-01-30T02:13:15.083Z,7.85
2019-01-30T02:15:42.022Z,9.63
2019-01-30T02:18:08.977Z,11.33
2019-01-30T02:20:35.957Z,8.03
2019-01-30T02:23:02.957Z,7.40
2019-01-30T02:25:30.056Z,11.70
2019-01-30T02:27:57.105Z,7.92
2019-01-30T02:30:26.033Z,9.68
2019-01-30T02:32:53.111Z,8.43
2019-01-30T02:35:21.966Z,7.95
2019-01-30T02:37:49.075Z,9.43
2019-01-30T02:40:18.583Z,9.88
2019-01-30T02:42:45.899Z,7.10
2019-01-30T02:45:15.994Z,9.43
2019-01-30T02:47:42.930Z,8.00
2019-01-30T02:50:12.566Z,6.05
2019-01-30T02:52:39.711Z,10.23
2019-01-30T02:55:08.301Z,7.00
2019-01-30T02:57:35.289Z,6.92
2019-01-30T03:00:02.993Z,8.75
2019-01-30T03:02:30.031Z,11.38
2019-01-30T03:04:57.016Z,7.70
2019-01-30T03:07:24.052Z,9.08
2019-01-30T03:09:51.047Z,7.62
2019-01-30T03:12:18.004Z,9.15
2019-01-30T03:14:45.171Z,9.60
2019-01-30T03:17:12.082Z,7.28
2019-01-30T03:19:39.181Z,8.30
2019-01-30T03:22:06.129Z,9.38
2019-01-30T03:24:33.210Z,9.70
2019-01-30T03:27:00.379Z,8.23
2019-01-30T03:29:27.637Z,9.18
2019-01-30T03:31:55.015Z,8.90
2019-01-30T03:34:22.158Z,8.40
2019-01-30T03:36:49.055Z,6.78
2019-01-30T03:39:16.073Z,7.75
2019-01-30T03:41:43.130Z,8.38
2019-01-30T03:44:10.107Z,8.78
2019-01-30T03:46:37.173Z,10.03
2019-01-30T03:49:06.005Z,7.62
2019-01-30T03:51:33.097Z,7.95
2019-01-30T03:54:00.062Z,9.63
2019-01-30T03:56:26.980Z,8.05
2019-01-30T03:58:55.709Z,9.35
2019-01-30T04:01:26.685Z,10.30
2019-01-30T04:03:52.905Z,9.55
2019-01-30T04:06:19.961Z,7.78
2019-01-30T04:08:46.976Z,8.98
2019-01-30T04:11:14.674Z,11.93
2019-01-30T04:13:41.630Z,7.70
2019-01-30T04:16:08.605Z,14.45
2019-01-30T04:18:36.582Z,9.23
2019-01-30T04:21:03.501Z,16.23
2019-01-30T04:23:30.693Z,8.78
2019-01-30T04:25:57.719Z,9.68
2019-01-30T04:28:24.806Z,7.92
2019-01-30T04:30:51.757Z,11.83
2019-01-30T04:33:18.709Z,8.25
2019-01-30T04:35:45.676Z,11.18
2019-01-30T04:38:12.723Z,10.93
2019-01-30T04:40:39.883Z,9.80
2019-01-30T04:43:07.102Z,9.63
2019-01-30T04:45:34.104Z,10.10
2019-01-30T04:48:01.074Z,9.28
2019-01-30T04:50:28.021Z,11.70
2019-01-30T04:52:54.992Z,7.40
2019-01-30T04:55:22.022Z,9.35
2019-01-30T04:57:50.282Z,12.78
2019-01-30T05:00:21.934Z,10.53
2019-01-30T05:02:49.140Z,7.42
2019-01-30T05:05:16.149Z,9.85
2019-01-30T05:07:43.121Z,9.85
2019-01-30T05:10:10.536Z,7.47
2019-01-30T05:12:37.585Z,7.78
2019-01-30T05:15:06.745Z,10.70
2019-01-30T05:17:33.806Z,10.80
2019-01-30T05:20:00.735Z,9.30
2019-01-30T05:22:27.815Z,8.15
2019-01-30T05:24:54.738Z,10.78
2019-01-30T05:27:21.881Z,8.65
2019-01-30T05:29:48.860Z,11.57
2019-01-30T05:32:15.974Z,9.25
2019-01-30T05:34:42.941Z,10.68
2019-01-30T05:37:09.908Z,14.95
2019-01-30T05:39:36.814Z,11.38
2019-01-30T05:42:03.876Z,11.93
2019-01-30T05:44:30.913Z,17.90
2019-01-30T05:46:57.969Z,11.83
2019-01-30T05:49:25.105Z,10.50
2019-01-30T05:51:52.126Z,11.68
2019-01-30T05:54:19.025Z,13.43
2019-01-30T05:56:45.988Z,14.03
2019-01-30T05:59:14.349Z,12.05
2019-01-30T06:01:41.288Z,9.43
2019-01-30T06:04:08.287Z,10.82
2019-01-30T06:06:35.286Z,12.98
2019-01-30T06:09:04.129Z,12.30
2019-01-30T06:11:32.222Z,10.85
2019-01-30T06:14:01.084Z,11.60
2019-01-30T06:16:29.899Z,9.73
2019-01-30T06:18:57.001Z,12.25
2019-01-30T06:21:23.998Z,12.43
2019-01-30T06:23:52.778Z,11.25
2019-01-30T06:26:19.792Z,12.00
2019-01-30T06:28:46.894Z,14.15
2019-01-30T06:31:13.899Z,9.95
2019-01-30T06:33:40.869Z,14.05
2019-01-30T06:36:09.711Z,10.25
2019-01-30T06:38:36.612Z,12.60
2019-01-30T06:41:04.575Z,13.80
2019-01-30T06:43:33.276Z,15.23
2019-01-30T06:46:00.222Z,11.97
2019-01-30T06:48:27.297Z,16.10
2019-01-30T06:50:54.510Z,16.37
2019-01-30T06:53:21.610Z,12.73
2019-01-30T06:55:48.713Z,13.40
2019-01-30T06:58:15.766Z,18.37
2019-01-30T07:00:42.859Z,12.73
2019-01-30T07:03:09.847Z,18.07
2019-01-30T07:05:43.250Z,15.40
2019-01-30T07:08:10.309Z,21.93
2019-01-30T07:10:39.009Z,16.90
2019-01-30T07:13:06.189Z,20.92
2019-01-30T07:15:33.463Z,18.25
2019-01-30T07:18:00.574Z,19.80
2019-01-30T07:20:27.814Z,19.92
2019-01-30T07:22:54.918Z,19.42
2019-01-30T07:25:21.971Z,23.77
2019-01-30T07:27:49.045Z,20.35
2019-01-30T07:30:18.460Z,21.77
2019-01-30T07:32:45.369Z,20.05
2019-01-30T07:35:12.893Z,21.42
2019-01-30T07:37:39.981Z,22.93
2019-01-30T07:40:08.048Z,18.85
2019-01-30T07:42:35.109Z,23.67
2019-01-30T07:45:02.411Z,17.40
2019-01-30T07:47:29.377Z,17.23
2019-01-30T07:49:56.363Z,23.30
2019-01-30T07:52:23.379Z,21.85
2019-01-30T07:54:50.305Z,20.02
2019-01-30T07:57:17.275Z,19.70
2019-01-30T07:59:44.650Z,17.55
2019-01-30T08:02:11.668Z,19.80
2019-01-30T08:04:38.690Z,16.42
2019-01-30T08:07:05.702Z,18.02
2019-01-30T08:09:34.098Z,18.60
2019-01-30T08:12:01.125Z,20.25
2019-01-30T08:14:28.184Z,26.90
2019-01-30T08:16:55.121Z,21.65
2019-01-30T08:19:26.041Z,18.77
2019-01-30T08:21:53.169Z,18.02
2019-01-30T08:24:20.344Z,19.85
2019-01-30T08:26:47.870Z,18.32
2019-01-30T08:29:15.171Z,20.48
2019-01-30T08:31:42.321Z,16.67
2019-01-30T08:34:09.336Z,20.68
2019-01-30T08:36:36.428Z,16.82
2019-01-30T08:39:06.597Z,18.62
2019-01-30T08:41:34.436Z,16.90
2019-01-30T08:44:03.683Z,16.00
2019-01-30T08:46:30.706Z,16.50
2019-01-30T08:48:57.934Z,24.85
2019-01-30T08:51:25.016Z,13.65
2019-01-30T08:53:52.285Z,15.63
2019-01-30T08:56:19.253Z,15.32
2019-01-30T08:58:46.196Z,17.17
2019-01-30T09:01:13.246Z,23.12
2019-01-30T09:03:40.401Z,17.92
2019-01-30T09:06:07.392Z,23.32
2019-01-30T09:08:34.676Z,16.27
2019-01-30T09:11:01.685Z,20.60
2019-01-30T09:13:28.883Z,20.40
2019-01-30T09:15:55.917Z,18.45
2019-01-30T09:18:22.954Z,17.35
2019-01-30T09:20:50.079Z,21.25
2019-01-30T09:23:17.110Z,17.40
2019-01-30T09:25:44.051Z,18.50
2019-01-30T09:28:13.709Z,19.62
2019-01-30T09:30:40.738Z,15.05
2019-01-30T09:33:10.721Z,18.52
2019-01-30T09:35:37.909Z,16.67
2019-01-30T09:38:05.341Z,16.52
2019-01-30T09:40:32.342Z,17.27
2019-01-30T09:42:59.284Z,15.35
2019-01-30T09:45:26.279Z,17.98
2019-01-30T09:47:53.347Z,16.37
2019-01-30T09:50:20.507Z,14.60
2019-01-30T09:52:47.890Z,19.95
2019-01-30T09:55:15.122Z,20.12
2019-01-30T09:57:42.097Z,16.25
2019-01-30T10:00:13.802Z,16.20
2019-01-30T10:02:41.023Z,16.60
2019-01-30T10:05:08.345Z,18.80
2019-01-30T10:07:35.407Z,18.80
2019-01-30T10:10:04.080Z,23.02
2019-01-30T10:12:31.065Z,14.60
2019-01-30T10:14:58.046Z,16.52
2019-01-30T10:17:25.091Z,15.23
2019-01-30T10:19:55.183Z,15.78
2019-01-30T10:22:22.619Z,17.98
2019-01-30T10:24:50.618Z,19.92
2019-01-30T10:27:19.134Z,14.55
2019-01-30T10:29:47.009Z,15.23
2019-01-30T10:32:14.050Z,20.50
2019-01-30T10:34:41.151Z,18.25
2019-01-30T10:37:08.109Z,18.42
2019-01-30T10:39:37.119Z,23.50
2019-01-30T10:42:04.391Z,19.20
2019-01-30T10:44:31.357Z,19.05
2019-01-30T10:46:58.355Z,16.30
2019-01-30T10:49:26.188Z,18.37
2019-01-30T10:51:53.211Z,20.25
2019-01-30T10:54:20.387Z,20.27
2019-01-30T10:56:47.379Z,15.63
2019-01-30T10:59:14.472Z,20.27
2019-01-30T11:01:41.456Z,24.55
2019-01-30T11:04:08.504Z,18.45
2019-01-30T11:06:35.393Z,15.70
2019-01-30T11:09:06.438Z,17.23
2019-01-30T11:11:33.680Z,13.03
2019-01-30T11:14:00.688Z,15.38
2019-01-30T11:16:28.815Z,18.25
2019-01-30T11:18:55.887Z,15.15
2019-01-30T11:21:22.942Z,18.35
2019-01-30T11:23:50.002Z,19.73
2019-01-30T11:26:16.946Z,12.73
2019-01-30T11:28:43.858Z,16.30
2019-01-30T11:31:10.924Z,15.68
2019-01-30T11:33:37.977Z,11.90
2019-01-30T11:36:05.111Z,14.30
2019-01-30T11:38:33.311Z,15.15
2019-01-30T11:41:00.359Z,14.68
2019-01-30T11:43:27.271Z,15.18
2019-01-30T11:45:54.304Z,15.00
2019-01-30T11:48:21.388Z,12.00
2019-01-30T11:50:48.512Z,13.40
2019-01-30T11:53:15.684Z,10.00
2019-01-30T11:55:42.760Z,14.95
2019-01-30T11:58:14.954Z,10.88
2019-01-30T12:00:47.458Z,14.18
2019-01-30T12:03:14.475Z,15.25
2019-01-30T12:05:43.313Z,13.18
2019-01-30T12:08:12.432Z,13.18
2019-01-30T12:10:39.455Z,16.60
2019-01-30T12:13:06.588Z,15.20
2019-01-30T12:15:33.611Z,13.90
2019-01-30T12:18:00.734Z,13.20
2019-01-30T12:20:27.672Z,12.63
2019-01-30T12:22:54.611Z,10.23
2019-01-30T12:25:21.781Z,11.10
2019-01-30T12:27:50.804Z,13.25
2019-01-30T12:30:19.883Z,11.18
2019-01-30T12:32:46.880Z,10.88
2019-01-30T12:35:13.923Z,14.35
2019-01-30T12:37:40.980Z,11.97
2019-01-30T12:40:09.533Z,10.93
2019-01-30T12:42:36.611Z,13.25
2019-01-30T12:45:05.404Z,11.48
2019-01-30T12:47:32.377Z,18.57
2019-01-30T12:49:59.610Z,9.43
2019-01-30T12:52:26.675Z,9.98
2019-01-30T12:54:53.746Z,9.05
2019-01-30T12:57:20.777Z,12.63
2019-01-30T12:59:47.741Z,7.17
2019-01-30T13:02:14.773Z,7.30
2019-01-30T13:04:41.877Z,8.60
2019-01-30T13:07:08.964Z,8.38
2019-01-30T13:09:35.964Z,7.37
2019-01-30T13:12:02.874Z,7.15
2019-01-30T13:14:29.904Z,4.80
2019-01-30T13:16:57.362Z,4.97
2019-01-30T13:19:26.683Z,6.50
2019-01-30T13:21:53.649Z,7.17
2019-01-30T13:24:20.708Z,4.03
2019-01-30T13:26:48.037Z,3.70
2019-01-30T13:29:15.207Z,3.30
2019-01-30T13:31:42.293Z,3.02
2019-01-30T13:34:09.185Z,3.05
2019-01-30T13:36:36.237Z,3.58
2019-01-30T13:39:06.473Z,3.60
2019-01-30T13:41:33.465Z,2.92
2019-01-30T13:44:00.578Z,6.53
2019-01-30T13:46:27.632Z,3.10
2019-01-30T13:48:55.141Z,3.37
2019-01-30T13:51:22.200Z,3.70
2019-01-30T13:53:49.340Z,4.30
2019-01-30T13:56:16.401Z,3.42
2019-01-30T13:58:43.440Z,3.55
2019-01-30T14:01:17.268Z,3.58
2019-01-30T14:03:39.597Z,4.03
2019-01-30T14:06:06.773Z,4.22
2019-01-30T14:08:33.843Z,3.05
2019-01-30T14:11:00.913Z,3.80
2019-01-30T14:13:28.044Z,2.92
2019-01-30T14:15:55.154Z,4.67
2019-01-30T14:18:22.284Z,3.52
2019-01-30T14:20:49.328Z,2.62
2019-01-30T14:23:16.354Z,4.05
2019-01-30T14:25:43.361Z,3.17
2019-01-30T14:28:10.392Z,3.40
2019-01-30T14:30:38.404Z,3.27
2019-01-30T14:33:05.525Z,6.58
2019-01-30T14:35:38.973Z,3.72
2019-01-30T14:38:06.077Z,3.00
2019-01-30T14:40:33.161Z,5.33
2019-01-30T14:43:00.248Z,3.42
2019-01-30T14:45:27.285Z,7.08
2019-01-30T14:47:54.266Z,4.37
2019-01-30T14:50:22.641Z,3.65
2019-01-30T14:52:49.637Z,3.27
2019-01-30T14:55:17.709Z,4.72
2019-01-30T14:57:44.968Z,3.50
2019-01-30T15:00:23.406Z,4.70
2019-01-30T15:02:50.548Z,3.20
2019-01-30T15:05:22.349Z,2.95
2019-01-30T15:07:47.303Z,3.00
2019-01-30T15:10:15.819Z,5.03
2019-01-30T15:12:42.915Z,3.40
2019-01-30T15:15:12.040Z,3.20
2019-01-30T15:17:39.079Z,4.85
2019-01-30T15:20:11.573Z,4.00
2019-01-30T15:22:38.611Z,4.65
2019-01-30T15:25:07.134Z,10.28
2019-01-30T15:27:34.058Z,6.08
2019-01-30T15:30:01.143Z,7.75
2019-01-30T15:32:28.220Z,5.85
2019-01-30T15:34:55.208Z,8.75
2019-01-30T15:37:22.361Z,6.10
2019-01-30T15:39:49.294Z,5.83
2019-01-30T15:42:16.394Z,6.33
2019-01-30T15:44:43.392Z,6.33
2019-01-30T15:47:10.385Z,6.25
2019-01-30T15:49:37.445Z,11.30
2019-01-30T15:52:04.437Z,10.25
2019-01-30T15:54:31.441Z,7.17
2019-01-30T15:56:58.415Z,8.60
2019-01-30T15:59:25.328Z,6.42
2019-01-30T16:01:52.463Z,6.87
2019-01-30T16:04:19.358Z,6.75
2019-01-30T16:06:46.587Z,9.25
2019-01-30T16:09:13.624Z,6.40
2019-01-30T16:11:40.637Z,6.40
2019-01-30T16:14:08.284Z,9.53
2019-01-30T16:16:35.368Z,7.80
2019-01-30T16:19:02.500Z,5.90
2019-01-30T16:21:29.489Z,6.55
2019-01-30T16:23:56.633Z,5.65
2019-01-30T16:26:23.778Z,6.03
2019-01-30T16:28:52.336Z,5.53
2019-01-30T16:31:19.715Z,5.28
2019-01-30T16:33:48.556Z,5.62
2019-01-30T16:36:16.203Z,5.92
2019-01-30T16:38:43.983Z,6.05
2019-01-30T16:41:11.115Z,5.75
2019-01-30T16:43:38.135Z,6.25
2019-01-30T16:46:05.518Z,5.75
2019-01-30T16:48:32.684Z,5.58
2019-01-30T16:50:59.765Z,6.42
2019-01-30T16:53:26.801Z,5.17
2019-01-30T16:55:55.030Z,7.00
2019-01-30T16:58:23.769Z,5.50
2019-01-30T17:00:51.721Z,5.37
2019-01-30T17:03:18.972Z,5.65
2019-01-30T17:05:46.185Z,6.30
2019-01-30T17:08:13.313Z,5.62
2019-01-30T17:10:40.474Z,6.45
2019-01-30T17:13:07.489Z,6.47
2019-01-30T17:15:35.025Z,7.05
2019-01-30T17:18:02.227Z,5.90
2019-01-30T17:20:31.664Z,6.50
2019-01-30T17:22:58.772Z,5.62
2019-01-30T17:25:25.984Z,5.53
2019-01-30T17:27:53.049Z,6.15
2019-01-30T17:30:35.712Z,5.08
2019-01-30T17:33:03.507Z,6.17
2019-01-30T17:35:30.728Z,5.70
2019-01-30T17:37:59.639Z,6.55
2019-01-30T17:40:27.179Z,5.60
2019-01-30T17:42:54.130Z,5.90
2019-01-30T17:45:21.177Z,5.90
2019-01-30T17:47:48.521Z,7.25
2019-01-30T17:50:18.191Z,6.53
2019-01-30T17:52:45.527Z,6.35
2019-01-30T17:55:12.957Z,9.00
2019-01-30T17:57:40.823Z,6.17
2019-01-30T18:00:20.817Z,5.20
2019-01-30T18:02:47.978Z,6.05
2019-01-30T18:05:15.637Z,7.62
2019-01-30T18:07:42.809Z,6.75
2019-01-30T18:10:10.921Z,6.37
2019-01-30T18:12:37.941Z,6.85
2019-01-30T18:15:05.573Z,6.45
2019-01-30T18:17:32.928Z,7.80
2019-01-30T18:20:00.345Z,5.62
2019-01-30T18:22:27.749Z,5.80
2019-01-30T18:24:55.047Z,6.30
2019-01-30T18:27:22.321Z,8.95
2019-01-30T18:29:49.296Z,5.97
2019-01-30T18:32:16.425Z,7.25
2019-01-30T18:34:43.545Z,5.58
2019-01-30T18:37:10.754Z,5.08
2019-01-30T18:39:37.871Z,5.50
2019-01-30T18:42:04.884Z,5.40
2019-01-30T18:44:31.966Z,5.87
2019-01-30T18:46:59.146Z,7.30
2019-01-30T18:49:28.030Z,6.50
2019-01-30T18:51:55.122Z,7.17
2019-01-30T18:54:22.150Z,6.80
2019-01-30T18:56:51.100Z,6.65
2019-01-30T18:59:18.131Z,6.28
2019-01-30T19:01:45.387Z,7.72
2019-01-30T19:04:12.507Z,6.75
2019-01-30T19:06:39.439Z,7.62
2019-01-30T19:09:09.125Z,10.08
2019-01-30T19:11:36.302Z,7.10
2019-01-30T19:14:03.652Z,7.50
2019-01-30T19:16:30.720Z,6.78
2019-01-30T19:18:57.668Z,8.73
2019-01-30T19:21:25.169Z,6.50
2019-01-30T19:23:52.177Z,6.87
2019-01-30T19:26:19.144Z,7.35
2019-01-30T19:28:46.322Z,6.85
2019-01-30T19:31:13.502Z,8.40
2019-01-30T19:33:40.545Z,9.23
2019-01-30T19:36:07.745Z,7.00
2019-01-30T19:38:34.805Z,6.58
2019-01-30T19:41:01.741Z,7.55
2019-01-30T19:43:28.969Z,9.43
2019-01-30T19:45:56.265Z,9.05
2019-01-30T19:48:23.694Z,7.15
2019-01-30T19:50:50.934Z,7.28
2019-01-30T19:53:18.160Z,7.30
2019-01-30T19:55:45.247Z,6.37
2019-01-30T19:58:12.488Z,7.83
2019-01-30T20:00:44.787Z,7.42
2019-01-30T20:03:14.754Z,7.00
2019-01-30T20:05:42.037Z,5.90
2019-01-30T20:08:09.431Z,6.87
2019-01-30T20:10:37.473Z,6.42
2019-01-30T20:13:05.042Z,5.92
2019-01-30T20:15:32.417Z,6.33
2019-01-30T20:17:59.463Z,6.10
2019-01-30T20:20:29.136Z,5.17
2019-01-30T20:22:56.646Z,5.33
2019-01-30T20:25:26.599Z,5.35
2019-01-30T20:27:53.937Z,5.53
2019-01-30T20:30:21.442Z,5.47
2019-01-30T20:32:48.942Z,6.62
2019-01-30T20:35:16.633Z,6.30
2019-01-30T20:37:44.008Z,6.03
2019-01-30T20:40:13.785Z,7.15
2019-01-30T20:42:40.965Z,6.50
2019-01-30T20:45:10.319Z,5.95
2019-01-30T20:47:37.709Z,5.20
2019-01-30T20:50:08.581Z,9.35
2019-01-30T20:52:35.967Z,8.78
2019-01-30T20:55:04.786Z,6.42
2019-01-30T20:57:31.848Z,6.90
2019-01-30T20:59:58.922Z,8.63
2019-01-30T21:02:26.538Z,4.25
2019-01-30T21:04:53.769Z,4.90
2019-01-30T21:07:20.719Z,5.33
2019-01-30T21:09:47.958Z,6.70
2019-01-30T21:12:16.255Z,5.42
2019-01-30T21:14:43.415Z,9.95
2019-01-30T21:17:13.385Z,8.58
2019-01-30T21:19:40.801Z,7.28
2019-01-30T21:22:08.435Z,5.80
2019-01-30T21:24:35.687Z,7.70
2019-01-30T21:27:04.213Z,5.75
2019-01-30T21:29:31.262Z,5.20
2019-01-30T21:31:58.307Z,4.42
2019-01-30T21:34:25.343Z,4.87
2019-01-30T21:36:52.582Z,4.80
2019-01-30T21:39:19.720Z,6.12
2019-01-30T21:41:46.770Z,6.78
2019-01-30T21:44:13.867Z,5.35
2019-01-30T21:46:40.986Z,3.60
2019-01-30T21:49:08.211Z,7.62
2019-01-30T21:51:35.355Z,4.45
2019-01-30T21:54:02.321Z,4.10
2019-01-30T21:56:29.993Z,4.72
2019-01-30T21:58:57.135Z,4.35
2019-01-30T22:01:24.142Z,5.65
2019-01-30T22:03:51.081Z,5.55
2019-01-30T22:06:18.110Z,3.55
2019-01-30T22:08:45.070Z,3.90
2019-01-30T22:11:12.021Z,3.15
2019-01-30T22:13:38.965Z,4.28
2019-01-30T22:16:06.305Z,6.15
2019-01-30T22:18:33.854Z,6.05
2019-01-30T22:21:01.441Z,5.40
2019-01-30T22:23:28.495Z,3.95
2019-01-30T22:25:55.641Z,4.90
2019-01-30T22:28:22.729Z,5.58
2019-01-30T22:30:51.494Z,4.08
2019-01-30T22:33:20.238Z,7.30
2019-01-30T22:35:47.236Z,5.08
2019-01-30T22:38:14.279Z,4.58
2019-01-30T22:40:41.223Z,4.10
2019-01-30T22:43:08.289Z,7.67
2019-01-30T22:45:35.373Z,9.95
2019-01-30T22:48:03.014Z,6.53
2019-01-30T22:50:30.165Z,6.97
2019-01-30T22:52:57.209Z,7.37
2019-01-30T22:55:24.183Z,6.65
2019-01-30T22:57:51.576Z,6.28
2019-01-30T23:01:02.469Z,5.60
2019-01-30T23:04:10.119Z,11.00
2019-01-30T23:07:32.994Z,12.23
2019-01-30T23:10:21.139Z,8.50
2019-01-30T23:13:13.061Z,9.48
2019-01-30T23:16:05.060Z,30.05
2019-01-30T23:19:11.468Z,20.72
2019-01-30T23:22:01.738Z,11.15
2019-01-30T23:25:16.969Z,18.23
2019-01-30T23:27:54.173Z,15.00
2019-01-30T23:30:48.354Z,15.95
2019-01-30T23:33:44.654Z,12.55
2019-01-30T23:36:25.988Z,7.30
2019-01-30T23:39:47.049Z,12.93
2019-01-30T23:43:05.007Z,8.13
2019-01-30T23:46:15.902Z,8.40
2019-01-30T23:49:07.619Z,6.50
2019-01-30T23:52:01.581Z,7.80
2019-01-30T23:55:03.001Z,7.62
